createdAt,value
2022-12-11T00:01:26.321Z,16.45
2022-12-11T00:03:53.322Z,16.33
2022-12-11T00:06:21.321Z,17.67
2022-12-11T00:08:48.612Z,18.02
2022-12-11T00:11:18.309Z,19.30
2022-12-11T00:13:44.912Z,17.98
2022-12-11T00:16:13.479Z,17.48
2022-12-11T00:18:40.396Z,17.83
2022-12-11T00:21:12.217Z,16.20
2022-12-11T00:23:41.553Z,18.67
2022-12-11T00:26:09.671Z,16.40
2022-12-11T00:28:36.397Z,18.58
2022-12-11T00:31:06.422Z,19.23
2022-12-11T00:33:33.047Z,19.13
2022-12-11T00:35:59.612Z,16.88
2022-12-11T00:38:27.558Z,17.08
2022-12-11T00:40:58.401Z,17.10
2022-12-11T00:43:27.887Z,16.37
2022-12-11T00:45:54.687Z,13.27
2022-12-11T00:48:21.247Z,17.25
2022-12-11T00:50:50.568Z,14.20
2022-12-11T00:53:19.760Z,16.63
2022-12-11T00:55:48.718Z,13.40
2022-12-11T00:58:16.116Z,16.13
2022-12-11T01:00:43.682Z,14.23
2022-12-11T01:03:10.948Z,14.07
2022-12-11T01:05:38.502Z,12.65
2022-12-11T01:08:05.068Z,11.63
2022-12-11T01:10:32.061Z,12.27
2022-12-11T01:13:00.100Z,12.70
2022-12-11T01:15:31.050Z,12.52
2022-12-11T01:17:58.141Z,14.15
2022-12-11T01:20:25.814Z,12.03
2022-12-11T01:22:54.246Z,11.95
2022-12-11T01:25:25.632Z,11.15
2022-12-11T01:27:52.926Z,12.75
2022-12-11T01:30:20.507Z,12.68
2022-12-11T01:32:47.896Z,12.33
2022-12-11T01:35:14.794Z,12.82
2022-12-11T01:37:42.208Z,13.30
2022-12-11T01:40:09.437Z,13.75
2022-12-11T01:42:35.965Z,15.07
2022-12-11T01:45:20.629Z,15.30
2022-12-11T01:47:53.602Z,14.68
2022-12-11T01:50:20.292Z,13.82
2022-12-11T01:52:47.410Z,14.57
2022-12-11T01:55:15.114Z,14.57
2022-12-11T01:57:43.321Z,14.20
2022-12-11T02:00:10.396Z,14.82
2022-12-11T02:02:36.977Z,14.30
2022-12-11T02:05:04.150Z,13.52
2022-12-11T02:07:32.849Z,14.02
2022-12-11T02:09:59.465Z,13.53
2022-12-11T02:12:36.710Z,13.30
2022-12-11T02:15:16.236Z,12.93
2022-12-11T02:17:45.527Z,14.13
2022-12-11T02:20:24.145Z,15.85
2022-12-11T02:23:09.170Z,14.57
2022-12-11T02:25:54.239Z,14.10
2022-12-11T02:28:23.530Z,14.85
2022-12-11T02:30:52.198Z,15.07
2022-12-11T02:33:21.889Z,13.88
2022-12-11T02:35:49.312Z,15.80
2022-12-11T02:38:17.971Z,12.93
2022-12-11T02:40:44.966Z,15.23
2022-12-11T02:43:13.392Z,13.73
2022-12-11T02:45:40.979Z,13.90
2022-12-11T02:48:09.954Z,12.87
2022-12-11T02:50:38.112Z,13.10
2022-12-11T02:53:06.606Z,13.88
2022-12-11T02:55:33.765Z,12.93
2022-12-11T02:58:03.519Z,14.48
2022-12-11T03:00:30.035Z,17.40
2022-12-11T03:02:56.958Z,15.43
2022-12-11T03:05:23.481Z,17.70
2022-12-11T03:07:50.083Z,18.55
2022-12-11T03:10:19.085Z,17.02
2022-12-11T03:12:53.028Z,14.73
2022-12-11T03:15:21.062Z,13.35
2022-12-11T03:17:50.524Z,16.50
2022-12-11T03:20:31.166Z,13.32
2022-12-11T03:23:13.103Z,14.13
2022-12-11T03:25:54.143Z,14.77
2022-12-11T03:28:35.991Z,12.38
2022-12-11T03:31:05.517Z,13.07
2022-12-11T03:33:34.943Z,13.73
2022-12-11T03:36:04.047Z,12.65
2022-12-11T03:38:33.142Z,13.47
2022-12-11T03:41:02.296Z,12.10
2022-12-11T03:43:29.298Z,8.38
2022-12-11T03:45:56.762Z,11.48
2022-12-11T03:48:24.385Z,11.00
2022-12-11T03:50:51.016Z,11.73
2022-12-11T03:53:18.698Z,11.68
2022-12-11T03:55:46.371Z,10.73
2022-12-11T03:58:12.858Z,11.50
2022-12-11T04:00:39.509Z,11.18
2022-12-11T04:03:15.964Z,12.07
2022-12-11T04:05:44.072Z,11.07
2022-12-11T04:08:11.276Z,10.35
2022-12-11T04:10:37.940Z,12.27
2022-12-11T04:15:31.261Z,12.47
2022-12-11T04:18:16.471Z,11.07
2022-12-11T04:21:01.552Z,13.30
2022-12-11T04:23:46.417Z,10.70
2022-12-11T04:26:14.855Z,11.20
2022-12-11T04:28:41.947Z,12.80
2022-12-11T04:31:12.223Z,11.48
2022-12-11T04:33:38.739Z,12.13
2022-12-11T04:36:05.341Z,11.20
2022-12-11T04:38:31.878Z,11.63
2022-12-11T04:41:02.315Z,11.60
2022-12-11T04:43:29.136Z,11.77
2022-12-11T04:46:02.692Z,11.85
2022-12-11T04:48:29.329Z,11.57
2022-12-11T04:50:55.805Z,9.85
2022-12-11T04:53:22.468Z,9.57
2022-12-11T04:55:49.078Z,9.45
2022-12-11T04:58:15.674Z,10.80
2022-12-11T05:00:42.625Z,9.52
2022-12-11T05:03:09.478Z,10.38
2022-12-11T05:05:36.242Z,9.47
2022-12-11T05:08:02.837Z,9.13
2022-12-11T05:10:29.412Z,11.20
2022-12-11T05:12:55.902Z,9.57
2022-12-11T05:15:22.502Z,10.50
2022-12-11T05:17:49.475Z,10.17
2022-12-11T05:20:16.184Z,12.02
2022-12-11T05:22:42.620Z,10.90
2022-12-11T05:25:09.560Z,11.02
2022-12-11T05:27:36.387Z,12.32
2022-12-11T05:30:03.019Z,10.10
2022-12-11T05:32:29.500Z,11.77
2022-12-11T05:34:55.986Z,11.85
2022-12-11T05:37:22.735Z,11.45
2022-12-11T05:39:49.259Z,12.48
2022-12-11T05:42:15.682Z,10.73
2022-12-11T05:44:42.138Z,12.10
2022-12-11T05:47:08.980Z,12.85
2022-12-11T05:49:35.400Z,10.65
2022-12-11T05:52:01.772Z,10.15
2022-12-11T05:54:28.276Z,10.93
2022-12-11T05:56:54.996Z,11.63
2022-12-11T05:59:21.655Z,10.63
2022-12-11T06:01:48.125Z,10.55
2022-12-11T06:04:14.818Z,10.02
2022-12-11T06:06:43.739Z,9.30
2022-12-11T06:09:13.328Z,10.90
2022-12-11T06:11:39.790Z,9.93
2022-12-11T06:14:06.342Z,11.88
2022-12-11T06:16:33.094Z,10.38
2022-12-11T06:18:59.572Z,10.40
2022-12-11T06:21:27.655Z,10.77
2022-12-11T06:23:55.508Z,10.73
2022-12-11T06:26:22.349Z,11.55
2022-12-11T06:28:49.434Z,11.82
2022-12-11T06:31:16.576Z,9.87
2022-12-11T06:33:43.469Z,11.57
2022-12-11T06:36:14.249Z,9.55
2022-12-11T06:38:40.796Z,9.98
2022-12-11T06:41:08.343Z,11.18
2022-12-11T06:43:36.275Z,10.33
2022-12-11T06:46:06.427Z,9.90
2022-12-11T06:48:33.003Z,10.57
2022-12-11T06:50:59.643Z,10.63
2022-12-11T06:53:26.103Z,10.90
2022-12-11T06:55:52.583Z,11.07
2022-12-11T06:58:19.103Z,10.35
2022-12-11T07:00:45.624Z,12.13
2022-12-11T07:03:13.753Z,11.35
2022-12-11T07:05:40.283Z,10.27
2022-12-11T07:08:07.546Z,12.53
2022-12-11T07:10:34.207Z,11.65
2022-12-11T07:13:00.680Z,9.85
2022-12-11T07:15:27.278Z,10.25
2022-12-11T07:17:54.055Z,10.48
2022-12-11T07:20:20.543Z,10.27
2022-12-11T07:22:47.033Z,10.25
2022-12-11T07:25:13.792Z,9.63
2022-12-11T07:30:08.476Z,10.35
2022-12-11T07:32:35.059Z,10.40
2022-12-11T07:35:01.502Z,10.55
2022-12-11T07:37:28.016Z,11.48
2022-12-11T07:39:54.483Z,10.05
2022-12-11T07:42:21.021Z,9.82
2022-12-11T07:44:47.479Z,12.27
2022-12-11T07:47:13.869Z,10.32
2022-12-11T07:49:40.318Z,11.88
2022-12-11T07:52:06.904Z,11.35
2022-12-11T07:54:33.353Z,11.52
2022-12-11T07:56:59.888Z,10.07
2022-12-11T07:59:26.348Z,10.57
2022-12-11T08:01:52.972Z,11.93
2022-12-11T08:04:19.518Z,11.30
2022-12-11T08:06:46.044Z,11.65
2022-12-11T08:11:48.518Z,10.88
2022-12-11T08:14:14.975Z,10.40
2022-12-11T08:16:43.245Z,12.32
2022-12-11T08:19:11.231Z,12.00
2022-12-11T08:21:38.231Z,11.67
2022-12-11T08:24:04.969Z,12.70
2022-12-11T08:26:31.844Z,12.27
2022-12-11T08:28:58.694Z,12.25
2022-12-11T08:31:25.221Z,10.77
2022-12-11T08:33:51.972Z,11.67
2022-12-11T08:36:19.776Z,11.77
2022-12-11T08:38:46.893Z,9.95
2022-12-11T08:41:13.288Z,12.35
2022-12-11T08:43:40.026Z,12.43
2022-12-11T08:46:07.279Z,12.87
2022-12-11T08:48:34.325Z,13.15
2022-12-11T08:51:01.890Z,14.15
2022-12-11T08:53:31.991Z,12.73
2022-12-11T08:56:02.517Z,12.30
2022-12-11T09:00:56.653Z,14.70
2022-12-11T09:03:23.592Z,12.00
2022-12-11T09:05:50.141Z,13.77
2022-12-11T09:08:16.616Z,13.95
2022-12-11T09:10:43.129Z,13.07
2022-12-11T09:13:09.582Z,13.23
2022-12-11T09:15:36.392Z,14.20
2022-12-11T09:18:02.906Z,14.55
2022-12-11T09:20:29.384Z,14.15
2022-12-11T09:22:55.883Z,15.17
2022-12-11T09:25:22.365Z,19.65
2022-12-11T09:27:48.758Z,14.38
2022-12-11T09:30:15.829Z,12.45
2022-12-11T09:32:42.276Z,12.50
2022-12-11T09:35:09.415Z,13.67
2022-12-11T09:37:36.221Z,14.90
2022-12-11T09:40:07.605Z,13.77
2022-12-11T09:42:46.689Z,11.63
2022-12-11T09:45:15.199Z,12.55
2022-12-11T09:47:43.848Z,14.93
2022-12-11T09:50:10.500Z,14.30
2022-12-11T09:52:48.964Z,13.75
2022-12-11T09:55:17.561Z,12.57
2022-12-11T09:57:44.127Z,12.18
2022-12-11T10:00:13.763Z,12.80
2022-12-11T10:02:43.031Z,13.70
2022-12-11T10:05:17.821Z,13.88
2022-12-11T10:08:03.211Z,14.60
2022-12-11T10:10:32.764Z,12.93
2022-12-11T10:13:19.420Z,15.00
2022-12-11T10:15:45.887Z,14.85
2022-12-11T10:18:17.432Z,13.10
2022-12-11T10:20:45.332Z,13.38
2022-12-11T10:23:17.557Z,11.75
2022-12-11T10:26:04.063Z,13.30
2022-12-11T10:31:16.037Z,13.50
2022-12-11T10:34:02.099Z,12.35
2022-12-11T10:36:33.044Z,13.20
2022-12-11T10:38:59.685Z,11.73
2022-12-11T10:41:45.900Z,11.90
2022-12-11T10:44:15.455Z,12.48
2022-12-11T10:46:42.030Z,14.45
2022-12-11T10:49:20.152Z,12.57
2022-12-11T10:51:46.567Z,13.43
2022-12-11T10:54:33.336Z,12.63
2022-12-11T10:57:01.028Z,13.93
2022-12-11T10:59:36.445Z,13.43
2022-12-11T11:02:04.058Z,14.38
2022-12-11T11:04:35.237Z,13.87
2022-12-11T11:07:13.524Z,13.70
2022-12-11T11:09:40.456Z,13.93
2022-12-11T11:12:27.208Z,13.73
2022-12-11T11:15:04.714Z,12.98
2022-12-11T11:17:34.951Z,12.83
2022-12-11T11:20:04.999Z,14.25
2022-12-11T11:22:32.060Z,16.38
2022-12-11T11:24:59.718Z,13.50
2022-12-11T11:27:29.448Z,14.88
2022-12-11T11:29:58.238Z,15.00
2022-12-11T11:32:44.961Z,14.23
2022-12-11T11:35:11.817Z,16.48
2022-12-11T11:37:39.531Z,12.85
2022-12-11T11:40:11.570Z,14.73
2022-12-11T11:42:43.285Z,12.27
2022-12-11T11:45:13.687Z,13.85
2022-12-11T11:47:48.471Z,14.50
2022-12-11T11:50:18.187Z,13.60
2022-12-11T11:53:00.189Z,11.90
2022-12-11T11:55:45.280Z,14.67
2022-12-11T11:58:34.952Z,13.52
2022-12-11T12:01:01.388Z,11.77
2022-12-11T12:03:28.672Z,14.52
2022-12-11T12:05:57.739Z,15.05
2022-12-11T12:08:30.344Z,12.93
2022-12-11T12:11:03.822Z,12.88
2022-12-11T12:13:49.168Z,13.52
2022-12-11T12:16:51.156Z,15.05
2022-12-11T12:19:16.076Z,13.57
2022-12-11T12:21:48.088Z,12.93
2022-12-11T12:24:14.466Z,13.35
2022-12-11T12:26:44.175Z,14.25
2022-12-11T12:29:10.718Z,12.23
2022-12-11T12:34:45.469Z,13.33
2022-12-11T12:37:15.017Z,10.32
2022-12-11T12:39:41.478Z,11.05
2022-12-11T12:42:08.180Z,11.63
2022-12-11T12:44:42.894Z,12.18
2022-12-11T12:47:11.714Z,11.20
2022-12-11T12:49:45.733Z,9.95
2022-12-11T12:52:15.125Z,11.65
2022-12-11T12:54:42.502Z,11.00
2022-12-11T12:57:09.336Z,10.95
2022-12-11T12:59:35.809Z,12.20
2022-12-11T13:02:03.270Z,11.65
2022-12-11T13:04:55.482Z,11.15
2022-12-11T13:07:29.970Z,11.25
2022-12-11T13:10:01.416Z,12.02
2022-12-11T13:12:40.778Z,10.27
2022-12-11T13:15:26.308Z,9.02
2022-12-11T13:17:52.804Z,11.63
2022-12-11T13:20:21.039Z,11.63
2022-12-11T13:22:49.018Z,10.20
2022-12-11T13:25:22.171Z,11.97
2022-12-11T13:27:49.866Z,11.70
2022-12-11T13:30:16.283Z,11.93
2022-12-11T13:32:43.769Z,11.73
2022-12-11T13:35:16.131Z,10.07
2022-12-11T13:37:46.556Z,11.37
2022-12-11T13:40:20.701Z,12.52
2022-12-11T13:42:53.013Z,10.60
2022-12-11T13:45:25.730Z,11.65
2022-12-11T13:47:52.473Z,10.23
2022-12-11T13:50:22.489Z,11.63
2022-12-11T13:53:01.728Z,11.82
2022-12-11T13:55:32.287Z,12.02
2022-12-11T13:57:59.299Z,11.68
2022-12-11T14:00:27.648Z,12.30
2022-12-11T14:02:56.206Z,10.37
2022-12-11T14:05:22.943Z,13.07
2022-12-11T14:07:53.549Z,11.70
2022-12-11T14:10:24.872Z,12.13
2022-12-11T14:12:54.101Z,11.48
2022-12-11T14:15:20.849Z,11.70
2022-12-11T14:17:51.664Z,11.32
2022-12-11T14:20:18.730Z,12.13
2022-12-11T14:22:45.207Z,11.68
2022-12-11T14:25:38.028Z,11.77
2022-12-11T14:28:04.570Z,11.13
2022-12-11T14:30:33.241Z,11.52
2022-12-11T14:33:01.884Z,11.57
2022-12-11T14:35:38.630Z,11.30
2022-12-11T14:38:15.345Z,10.40
2022-12-11T14:40:43.496Z,11.47
2022-12-11T14:43:13.336Z,10.02
2022-12-11T14:45:44.734Z,10.52
2022-12-11T14:48:18.341Z,11.60
2022-12-11T14:50:48.202Z,11.45
2022-12-11T14:53:17.547Z,10.50
2022-12-11T14:55:44.978Z,10.10
2022-12-11T14:58:22.835Z,10.55
2022-12-11T15:01:01.662Z,11.50
2022-12-11T15:03:34.300Z,12.25
2022-12-11T15:06:01.436Z,11.30
2022-12-11T15:08:30.364Z,10.90
2022-12-11T15:11:03.370Z,11.27
2022-12-11T15:13:30.325Z,11.98
2022-12-11T15:15:57.401Z,17.83
2022-12-11T15:18:26.533Z,14.83
2022-12-11T15:20:53.783Z,12.98
2022-12-11T15:23:20.414Z,10.30
2022-12-11T15:25:55.088Z,11.18
2022-12-11T15:28:30.824Z,10.68
2022-12-11T15:30:58.803Z,10.67
2022-12-11T15:33:29.714Z,11.27
2022-12-11T15:38:37.484Z,12.25
2022-12-11T15:41:04.515Z,12.70
2022-12-11T15:43:32.172Z,11.50
2022-12-11T15:45:58.637Z,11.25
2022-12-11T15:48:25.268Z,12.18
2022-12-11T15:50:51.835Z,11.30
2022-12-11T15:53:18.317Z,12.30
2022-12-11T15:55:44.942Z,11.63
2022-12-11T15:58:19.246Z,13.70
2022-12-11T16:00:45.884Z,21.13
2022-12-11T16:03:16.392Z,13.77
2022-12-11T16:05:43.110Z,12.80
2022-12-11T16:08:17.936Z,12.63
2022-12-11T16:10:44.785Z,11.35
2022-12-11T16:13:11.652Z,13.48
2022-12-11T16:15:39.167Z,16.50
2022-12-11T16:18:07.437Z,13.02
2022-12-11T16:20:35.271Z,12.93
2022-12-11T16:23:01.977Z,10.85
2022-12-11T16:25:28.761Z,12.88
2022-12-11T16:27:55.982Z,11.05
2022-12-11T16:30:22.726Z,11.32
2022-12-11T16:32:49.481Z,11.77
2022-12-11T16:35:16.154Z,10.65
2022-12-11T16:37:42.621Z,10.75
2022-12-11T16:40:09.453Z,10.73
2022-12-11T16:42:35.989Z,9.93
2022-12-11T16:45:06.778Z,11.40
2022-12-11T16:47:33.288Z,10.70
2022-12-11T16:50:00.630Z,11.57
2022-12-11T16:52:27.815Z,12.57
2022-12-11T16:54:54.714Z,11.77
2022-12-11T16:57:21.676Z,11.50
2022-12-11T16:59:48.428Z,11.05
2022-12-11T17:02:15.122Z,12.57
2022-12-11T17:04:42.271Z,10.88
2022-12-11T17:07:08.755Z,15.27
2022-12-11T17:09:35.326Z,11.03
2022-12-11T17:12:01.881Z,11.35
2022-12-11T17:14:28.680Z,12.43
2022-12-11T17:16:55.708Z,10.98
2022-12-11T17:19:22.528Z,17.67
2022-12-11T17:21:51.510Z,11.60
2022-12-11T17:24:18.387Z,10.95
2022-12-11T17:26:44.981Z,11.60
2022-12-11T17:29:11.951Z,12.55
2022-12-11T17:31:38.477Z,11.35
2022-12-11T17:34:05.139Z,11.23
2022-12-11T17:36:31.855Z,9.80
2022-12-11T17:39:01.151Z,12.27
2022-12-11T17:41:27.689Z,11.32
2022-12-11T17:43:54.298Z,12.18
2022-12-11T17:46:20.885Z,11.13
2022-12-11T17:48:48.479Z,10.57
2022-12-11T17:51:21.151Z,12.20
2022-12-11T17:53:47.722Z,11.95
2022-12-11T17:56:14.221Z,12.18
2022-12-11T17:58:40.850Z,12.47
2022-12-11T18:01:08.310Z,12.30
2022-12-11T18:03:35.380Z,12.88
2022-12-11T18:06:06.501Z,12.27
2022-12-11T18:08:33.198Z,11.80
2022-12-11T18:11:10.755Z,12.23
2022-12-11T18:13:37.414Z,12.27
2022-12-11T18:16:09.022Z,12.23
2022-12-11T18:18:35.948Z,13.07
2022-12-11T18:21:02.777Z,11.65
2022-12-11T18:23:29.774Z,13.70
2022-12-11T18:25:56.303Z,13.60
2022-12-11T18:28:22.975Z,12.80
2022-12-11T18:30:49.825Z,13.27
2022-12-11T18:33:16.593Z,14.27
2022-12-11T18:35:43.149Z,14.30
2022-12-11T18:38:10.108Z,13.90
2022-12-11T18:40:37.773Z,12.68
2022-12-11T18:43:04.324Z,13.75
2022-12-11T18:45:30.889Z,14.35
2022-12-11T18:47:57.425Z,15.50
2022-12-11T18:50:24.058Z,14.18
2022-12-11T18:52:54.373Z,13.55
2022-12-11T18:55:20.917Z,12.77
2022-12-11T18:57:47.502Z,14.23
2022-12-11T19:00:14.428Z,13.77
2022-12-11T19:02:40.953Z,16.40
2022-12-11T19:05:07.587Z,15.48
2022-12-11T19:07:34.088Z,15.18
2022-12-11T19:12:27.327Z,14.23
2022-12-11T19:14:54.625Z,14.05
2022-12-11T19:17:21.109Z,13.82
2022-12-11T19:19:47.584Z,13.32
2022-12-11T19:22:15.110Z,16.08
2022-12-11T19:24:41.596Z,15.40
2022-12-11T19:27:13.232Z,13.70
2022-12-11T19:29:40.412Z,16.15
2022-12-11T19:32:07.078Z,14.38
2022-12-11T19:34:33.555Z,13.48
2022-12-11T19:37:00.398Z,15.63
2022-12-11T19:39:27.083Z,13.50
2022-12-11T19:41:53.575Z,13.45
2022-12-11T19:44:20.087Z,13.23
2022-12-11T19:46:46.562Z,12.48
2022-12-11T19:49:13.022Z,14.57
2022-12-11T19:51:40.691Z,12.77
2022-12-11T19:54:08.011Z,13.23
2022-12-11T19:56:34.820Z,13.73
2022-12-11T19:59:02.278Z,19.00
2022-12-11T20:01:31.144Z,27.73
2022-12-11T20:03:59.797Z,28.98
2022-12-11T20:06:33.576Z,22.77
2022-12-11T20:09:00.449Z,14.85
2022-12-11T20:11:27.201Z,13.75
2022-12-11T20:13:55.577Z,14.63
2022-12-11T20:16:39.206Z,13.38
2022-12-11T20:19:08.638Z,13.15
2022-12-11T20:21:35.151Z,12.55
2022-12-11T20:24:01.650Z,14.90
2022-12-11T20:26:29.735Z,14.40
2022-12-11T20:28:56.443Z,14.43
2022-12-11T20:31:24.250Z,12.75
2022-12-11T20:33:51.856Z,13.38
2022-12-11T20:36:19.033Z,12.75
2022-12-11T20:38:45.836Z,14.20
2022-12-11T20:41:13.259Z,14.82
2022-12-11T20:43:40.455Z,12.45
2022-12-11T20:46:07.866Z,14.38
2022-12-11T20:48:34.503Z,13.52
2022-12-11T20:51:02.140Z,13.17
2022-12-11T20:53:28.675Z,13.40
2022-12-11T20:55:55.424Z,14.80
2022-12-11T20:58:22.074Z,13.07
2022-12-11T21:00:48.874Z,14.27
2022-12-11T21:03:17.187Z,12.70
2022-12-11T21:05:44.431Z,12.60
2022-12-11T21:10:46.430Z,13.20
2022-12-11T21:13:12.946Z,13.18
2022-12-11T21:15:39.992Z,12.00
2022-12-11T21:18:07.190Z,13.63
2022-12-11T21:20:33.991Z,12.65
2022-12-11T21:23:00.778Z,12.38
2022-12-11T21:25:27.350Z,13.15
2022-12-11T21:27:54.050Z,12.20
2022-12-11T21:32:47.874Z,11.82
2022-12-11T21:35:14.717Z,12.18
2022-12-11T21:37:42.104Z,11.93
2022-12-11T21:40:09.292Z,11.23
2022-12-11T21:42:35.854Z,11.63
2022-12-11T21:47:52.341Z,11.48
2022-12-11T21:52:46.338Z,11.17
2022-12-11T21:55:13.290Z,12.25
2022-12-11T21:57:40.025Z,11.75
2022-12-11T22:00:06.747Z,11.15
2022-12-11T22:02:37.476Z,11.20
2022-12-11T22:05:07.389Z,10.97
2022-12-11T22:07:33.935Z,11.95
2022-12-11T22:10:00.495Z,11.65
2022-12-11T22:12:27.827Z,11.98
2022-12-11T22:19:48.680Z,11.45
2022-12-11T22:22:15.314Z,11.77
2022-12-11T22:24:41.767Z,12.10
2022-12-11T22:27:08.284Z,12.93
2022-12-11T22:29:35.638Z,12.27
2022-12-11T22:32:02.269Z,11.45
2022-12-11T22:34:28.803Z,11.60
2022-12-11T22:36:55.353Z,11.18
2022-12-11T22:39:22.056Z,12.38
2022-12-11T22:41:48.691Z,12.03
2022-12-11T22:44:19.702Z,13.00
2022-12-11T22:46:49.929Z,12.93
2022-12-11T22:49:17.421Z,11.60
2022-12-11T22:54:10.847Z,12.17
2022-12-11T22:56:37.311Z,12.70
2022-12-11T22:59:04.014Z,11.82
2022-12-11T23:01:30.706Z,12.63
2022-12-11T23:03:57.282Z,13.10
2022-12-11T23:06:24.948Z,13.23
2022-12-11T23:08:52.092Z,12.13
2022-12-11T23:11:24.758Z,12.77
2022-12-11T23:13:51.288Z,13.25
2022-12-11T23:16:17.901Z,13.93
2022-12-11T23:18:44.376Z,13.07
2022-12-11T23:21:10.959Z,14.48
2022-12-11T23:23:37.588Z,12.98
2022-12-11T23:26:05.153Z,13.07
2022-12-11T23:30:59.027Z,13.57
2022-12-11T23:33:25.723Z,12.65
2022-12-11T23:35:52.335Z,12.93
2022-12-11T23:38:18.804Z,14.90
2022-12-11T23:40:45.225Z,14.05
2022-12-11T23:43:11.772Z,13.50
2022-12-11T23:45:38.207Z,12.93
2022-12-11T23:48:04.695Z,14.15
2022-12-11T23:50:33.168Z,13.63
2022-12-11T23:52:59.621Z,12.93
2022-12-11T23:55:26.132Z,13.47
2022-12-11T23:57:52.659Z,15.82
